Terminal Aerodrome Forecast
Issued by NWS Atlanta, GA

Home | Current Version | Previous Version | Text Only | Print | Product List | Glossary On
Versions: 1 2 3 4 5 6 7 8 9 10 11 12 13 14
000
FTUS42 KFFC 171429 AAA
TAFMCN
TAF AMD
KMCN 171429Z 1714/1812 31008KT 3SM -SN SCT008 BKN020
     FM171500 31010G20KT P6SM SCT025 BKN060
     FM171700 31015G26KT P6SM SKC
     FM180200 33008KT P6SM SKC=

USA.gov is the U.S. government's official web portal to all federal, state and local government web resources and services.